createdAt,value
2017-03-25T00:00:40.025Z,0
2017-03-25T00:01:40.014Z,0
2017-03-25T00:02:40.028Z,0
2017-03-25T00:03:39.971Z,0
2017-03-25T00:04:39.641Z,0
2017-03-25T00:05:39.931Z,0
2017-03-25T00:06:39.607Z,0
2017-03-25T00:07:39.638Z,0
2017-03-25T00:08:39.571Z,0
2017-03-25T00:09:39.861Z,0
2017-03-25T00:10:39.855Z,0
2017-03-25T00:11:39.834Z,0
2017-03-25T00:12:39.498Z,0
2017-03-25T00:13:39.851Z,0
2017-03-25T00:14:39.783Z,0
2017-03-25T00:15:39.442Z,0
2017-03-25T00:16:39.743Z,0
2017-03-25T00:17:39.721Z,0
2017-03-25T00:18:39.393Z,0
2017-03-25T00:19:39.380Z,0
2017-03-25T00:20:39.358Z,0
2017-03-25T00:21:39.648Z,0
2017-03-25T00:22:39.636Z,0
2017-03-25T00:23:39.624Z,0
2017-03-25T00:24:39.601Z,0
2017-03-25T00:25:39.581Z,0
2017-03-25T00:26:39.561Z,0
2017-03-25T00:27:39.243Z,0
2017-03-25T00:28:39.530Z,0
2017-03-25T00:29:39.558Z,0
2017-03-25T00:30:39.241Z,0
2017-03-25T00:31:39.166Z,0
2017-03-25T00:32:39.455Z,0
2017-03-25T00:33:39.451Z,0
2017-03-25T00:34:39.111Z,0
2017-03-25T00:35:39.408Z,0
2017-03-25T00:36:39.075Z,0
2017-03-25T00:37:39.099Z,0
2017-03-25T00:38:39.355Z,0
2017-03-25T00:39:39.076Z,0
2017-03-25T00:40:39.316Z,0
2017-03-25T00:41:39.311Z,0
2017-03-25T00:42:38.964Z,0
2017-03-25T00:43:39.276Z,0
2017-03-25T00:44:38.929Z,0
2017-03-25T00:45:39.228Z,0
2017-03-25T00:46:38.889Z,0
2017-03-25T00:47:38.881Z,0
2017-03-25T00:48:39.181Z,0
2017-03-25T00:49:39.150Z,0
2017-03-25T00:50:38.835Z,0
2017-03-25T00:51:38.813Z,0
2017-03-25T00:52:38.818Z,0
2017-03-25T00:53:39.089Z,0
2017-03-25T00:54:38.760Z,0
2017-03-25T00:55:39.050Z,0
2017-03-25T00:56:38.718Z,0
2017-03-25T00:57:39.008Z,0
2017-03-25T00:58:38.368Z,0
2017-03-25T00:59:38.990Z,0
2017-03-25T01:00:38.960Z,0
2017-03-25T01:01:38.630Z,0
2017-03-25T01:02:38.962Z,0
2017-03-25T01:03:38.948Z,0
2017-03-25T01:04:38.587Z,0
2017-03-25T01:05:38.899Z,0
2017-03-25T01:06:38.546Z,0
2017-03-25T01:07:38.839Z,0
2017-03-25T01:08:38.821Z,0
2017-03-25T01:09:38.802Z,0
2017-03-25T01:10:38.783Z,0
2017-03-25T01:11:38.185Z,0
2017-03-25T01:12:38.747Z,0
2017-03-25T01:13:38.729Z,0
2017-03-25T01:14:38.708Z,0
2017-03-25T01:15:38.424Z,0
2017-03-25T01:16:38.051Z,0
2017-03-25T01:17:38.347Z,0
2017-03-25T01:18:38.320Z,0
2017-03-25T01:19:38.621Z,0
2017-03-25T01:20:37.985Z,0
2017-03-25T01:21:38.578Z,0
2017-03-25T01:22:38.560Z,0
2017-03-25T01:23:38.550Z,0
2017-03-25T01:24:38.573Z,0
2017-03-25T01:25:38.195Z,0
2017-03-25T01:26:38.539Z,0
2017-03-25T01:27:38.469Z,0
2017-03-25T01:28:38.653Z,0
2017-03-25T01:29:38.121Z,0
2017-03-25T01:30:38.417Z,0
2017-03-25T01:31:38.396Z,0
2017-03-25T01:32:38.074Z,0
2017-03-25T01:33:38.048Z,0
2017-03-25T01:34:38.349Z,0
2017-03-25T01:35:38.026Z,0
2017-03-25T01:36:38.316Z,0
2017-03-25T01:37:37.980Z,0
2017-03-25T01:38:38.275Z,0
2017-03-25T01:39:38.258Z,0
2017-03-25T01:40:37.934Z,0
2017-03-25T01:41:38.212Z,0
2017-03-25T01:42:37.952Z,0
2017-03-25T01:43:37.867Z,0
2017-03-25T01:44:38.159Z,0
2017-03-25T01:45:38.151Z,0
2017-03-25T01:46:38.136Z,0
2017-03-25T01:47:37.799Z,0
2017-03-25T01:48:38.129Z,0
2017-03-25T01:49:38.072Z,0
2017-03-25T01:50:37.747Z,0
2017-03-25T01:51:38.034Z,0
2017-03-25T01:52:38.028Z,0
2017-03-25T01:53:38.029Z,0
2017-03-25T01:54:37.674Z,0
2017-03-25T01:55:37.964Z,0
2017-03-25T01:56:37.630Z,0
2017-03-25T01:57:37.931Z,0
2017-03-25T01:58:37.908Z,0
2017-03-25T01:59:37.578Z,0
2017-03-25T02:00:37.870Z,0
2017-03-25T02:01:37.560Z,0
2017-03-25T02:02:37.841Z,0
2017-03-25T02:03:37.810Z,0
2017-03-25T02:04:37.796Z,0
2017-03-25T02:05:37.472Z,0
2017-03-25T02:06:37.761Z,0
2017-03-25T02:07:37.439Z,0
2017-03-25T02:08:37.417Z,0
2017-03-25T02:09:37.703Z,0
2017-03-25T02:10:37.692Z,0
2017-03-25T02:11:37.665Z,0
2017-03-25T02:12:37.350Z,0
2017-03-25T02:13:37.838Z,0
2017-03-25T02:14:37.620Z,0
2017-03-25T02:15:37.601Z,0
2017-03-25T02:16:37.580Z,0
2017-03-25T02:17:37.562Z,0
2017-03-25T02:18:37.237Z,0
2017-03-25T02:19:37.242Z,0
2017-03-25T02:20:37.558Z,0
2017-03-25T02:21:37.496Z,0
2017-03-25T02:22:37.468Z,0
2017-03-25T02:23:37.452Z,0
2017-03-25T02:24:37.441Z,0
2017-03-25T02:25:37.424Z,0
2017-03-25T02:26:37.087Z,0
2017-03-25T02:27:37.064Z,0
2017-03-25T02:28:37.043Z,0
2017-03-25T02:29:37.344Z,0
2017-03-25T02:30:37.320Z,0
2017-03-25T02:31:37.305Z,0
2017-03-25T02:32:37.281Z,0
2017-03-25T02:33:37.264Z,0
2017-03-25T02:34:36.933Z,0
2017-03-25T02:35:36.914Z,0
2017-03-25T02:36:37.206Z,0
2017-03-25T02:37:36.872Z,0
2017-03-25T02:38:37.167Z,0
2017-03-25T02:39:37.154Z,0
2017-03-25T02:40:37.130Z,0
2017-03-25T02:41:37.115Z,0
2017-03-25T02:42:37.101Z,0
2017-03-25T02:43:36.766Z,0
2017-03-25T02:44:36.790Z,0
2017-03-25T02:45:36.724Z,0
2017-03-25T02:46:37.022Z,0
2017-03-25T02:47:37.001Z,0
2017-03-25T02:48:36.984Z,0
2017-03-25T02:49:36.973Z,0
2017-03-25T02:50:36.963Z,0
2017-03-25T02:51:36.927Z,0
2017-03-25T02:52:36.917Z,0
2017-03-25T02:53:36.891Z,0
2017-03-25T02:54:36.871Z,0
2017-03-25T02:55:36.539Z,0
2017-03-25T02:56:36.848Z,0
2017-03-25T02:57:36.822Z,0
2017-03-25T02:58:36.804Z,0
2017-03-25T02:59:36.776Z,0
2017-03-25T03:00:36.760Z,0
2017-03-25T03:01:36.750Z,0
2017-03-25T03:02:36.730Z,0
2017-03-25T03:03:36.713Z,0
2017-03-25T03:04:36.063Z,0
2017-03-25T03:05:36.347Z,0
2017-03-25T03:06:36.331Z,0
2017-03-25T03:07:36.633Z,0
2017-03-25T03:08:36.616Z,0
2017-03-25T03:09:36.614Z,0
2017-03-25T03:10:36.257Z,0
2017-03-25T03:11:36.552Z,0
2017-03-25T03:12:36.529Z,0
2017-03-25T03:13:36.525Z,0
2017-03-25T03:14:36.497Z,0
2017-03-25T03:15:36.160Z,0
2017-03-25T03:16:36.460Z,0
2017-03-25T03:17:36.146Z,0
2017-03-25T03:18:36.417Z,0
2017-03-25T03:19:36.089Z,0
2017-03-25T03:20:36.383Z,0
2017-03-25T03:21:36.369Z,0
2017-03-25T03:22:36.045Z,0
2017-03-25T03:23:36.327Z,0
2017-03-25T03:24:35.993Z,0
2017-03-25T03:25:36.292Z,0
2017-03-25T03:26:35.960Z,0
2017-03-25T03:27:36.250Z,0
2017-03-25T03:28:36.446Z,0
2017-03-25T03:29:36.224Z,0
2017-03-25T03:30:36.194Z,0
2017-03-25T03:31:36.189Z,0
2017-03-25T03:32:36.166Z,0
2017-03-25T03:33:36.152Z,0
2017-03-25T03:34:36.120Z,0
2017-03-25T03:35:36.102Z,0
2017-03-25T03:36:35.776Z,0
2017-03-25T03:37:36.090Z,0
2017-03-25T03:38:35.416Z,0
2017-03-25T03:39:36.026Z,0
2017-03-25T03:40:35.693Z,0
2017-03-25T03:41:35.985Z,0
2017-03-25T03:42:35.968Z,0
2017-03-25T03:43:35.948Z,0
2017-03-25T03:44:35.610Z,0
2017-03-25T03:45:35.625Z,0
2017-03-25T03:46:35.587Z,0
2017-03-25T03:47:35.254Z,0
2017-03-25T03:48:35.854Z,0
2017-03-25T03:49:35.833Z,0
2017-03-25T03:50:35.810Z,0
2017-03-25T03:51:35.165Z,0
2017-03-25T03:52:35.792Z,0
2017-03-25T03:53:35.770Z,0
2017-03-25T03:54:35.429Z,0
2017-03-25T03:55:35.089Z,0
2017-03-25T03:56:35.071Z,0
2017-03-25T03:57:35.368Z,0
2017-03-25T03:58:35.670Z,0
2017-03-25T03:59:35.632Z,0
2017-03-25T04:00:35.306Z,0
2017-03-25T04:01:35.613Z,0
2017-03-25T04:02:34.954Z,0
2017-03-25T04:03:35.570Z,0
2017-03-25T04:04:35.565Z,0
2017-03-25T04:05:35.517Z,0
2017-03-25T04:06:35.506Z,0
2017-03-25T04:07:35.180Z,0
2017-03-25T04:08:35.154Z,0
2017-03-25T04:09:35.143Z,0
2017-03-25T04:10:35.121Z,0
2017-03-25T04:11:35.411Z,0
2017-03-25T04:12:35.396Z,0
2017-03-25T04:13:35.378Z,0
2017-03-25T04:14:35.351Z,0
2017-03-25T04:15:35.340Z,0
2017-03-25T04:16:35.000Z,0
2017-03-25T04:17:35.309Z,0
2017-03-25T04:18:34.963Z,0
2017-03-25T04:19:35.263Z,0
2017-03-25T04:20:35.239Z,0
2017-03-25T04:21:34.906Z,0
2017-03-25T04:22:35.200Z,0
2017-03-25T04:23:35.177Z,0
2017-03-25T04:24:36.134Z,0
2017-03-25T04:25:35.133Z,0
2017-03-25T04:26:35.126Z,0
2017-03-25T04:27:35.101Z,0
2017-03-25T04:28:34.779Z,0
2017-03-25T04:29:35.057Z,0
2017-03-25T04:30:35.053Z,0
2017-03-25T04:31:35.040Z,0
2017-03-25T04:32:34.696Z,0
2017-03-25T04:33:34.690Z,0
2017-03-25T04:34:34.352Z,0
2017-03-25T04:35:34.954Z,0
2017-03-25T04:36:34.937Z,0
2017-03-25T04:37:34.602Z,0
2017-03-25T04:38:34.893Z,0
2017-03-25T04:39:34.875Z,0
2017-03-25T04:40:34.850Z,0
2017-03-25T04:41:34.516Z,0
2017-03-25T04:42:34.499Z,0
2017-03-25T04:43:34.799Z,0
2017-03-25T04:44:34.459Z,0
2017-03-25T04:45:34.758Z,0
2017-03-25T04:46:34.425Z,0
2017-03-25T04:47:34.712Z,0
2017-03-25T04:48:34.703Z,0
2017-03-25T04:49:34.678Z,0
2017-03-25T04:50:34.652Z,0
2017-03-25T04:51:34.631Z,0
2017-03-25T04:52:34.621Z,0
2017-03-25T04:53:34.602Z,0
2017-03-25T04:54:34.583Z,0
2017-03-25T04:55:34.558Z,0
2017-03-25T04:56:34.532Z,0
2017-03-25T04:57:34.513Z,0
2017-03-25T04:58:34.200Z,0
2017-03-25T04:59:34.481Z,0
2017-03-25T05:00:34.151Z,0
2017-03-25T05:01:33.812Z,0
2017-03-25T05:02:33.839Z,0
2017-03-25T05:03:34.409Z,0
2017-03-25T05:04:33.763Z,0
2017-03-25T05:05:34.367Z,0
2017-03-25T05:06:34.338Z,0
2017-03-25T05:07:34.323Z,0
2017-03-25T05:08:34.310Z,0
2017-03-25T05:09:34.287Z,0
2017-03-25T05:10:34.268Z,0
2017-03-25T05:11:34.250Z,0
2017-03-25T05:12:34.231Z,0
2017-03-25T05:13:34.206Z,0
2017-03-25T05:14:34.195Z,0
2017-03-25T05:15:34.173Z,0
2017-03-25T05:16:34.174Z,0
2017-03-25T05:17:33.816Z,0
2017-03-25T05:18:34.161Z,0
2017-03-25T05:19:33.788Z,0
2017-03-25T05:20:34.072Z,0
2017-03-25T05:21:34.051Z,5
2017-03-25T05:22:34.024Z,5
2017-03-25T05:23:34.015Z,5
2017-03-25T05:24:34.033Z,5
2017-03-25T05:25:33.970Z,5
2017-03-25T05:26:33.951Z,5
2017-03-25T05:27:33.925Z,5
2017-03-25T05:28:34.522Z,5
2017-03-25T05:29:33.892Z,10
2017-03-25T05:30:33.867Z,10
2017-03-25T05:31:33.229Z,10
2017-03-25T05:32:33.836Z,10
2017-03-25T05:33:33.818Z,10
2017-03-25T05:34:33.802Z,15
2017-03-25T05:35:33.458Z,15
2017-03-25T05:36:33.755Z,15
2017-03-25T05:37:33.480Z,15
2017-03-25T05:38:33.402Z,15
2017-03-25T05:39:33.699Z,15
2017-03-25T05:40:33.668Z,20
2017-03-25T05:41:33.663Z,20
2017-03-25T05:42:33.336Z,20
2017-03-25T05:43:33.627Z,20
2017-03-25T05:44:33.619Z,20
2017-03-25T05:45:33.273Z,20
2017-03-25T05:46:33.244Z,25
2017-03-25T05:47:33.536Z,25
2017-03-25T05:48:33.525Z,25
2017-03-25T05:49:33.192Z,25
2017-03-25T05:50:33.476Z,25
2017-03-25T05:51:33.152Z,30
2017-03-25T05:52:33.438Z,30
2017-03-25T05:53:33.422Z,30
2017-03-25T05:54:33.396Z,30
2017-03-25T05:55:33.395Z,30
2017-03-25T05:56:33.353Z,30
2017-03-25T05:57:33.348Z,35
2017-03-25T05:58:33.324Z,35
2017-03-25T05:59:32.671Z,35
2017-03-25T06:00:32.982Z,35
2017-03-25T06:01:32.951Z,35
2017-03-25T06:02:33.242Z,40
2017-03-25T06:03:32.914Z,40
2017-03-25T06:04:33.203Z,40
2017-03-25T06:05:32.864Z,40
2017-03-25T06:06:33.153Z,40
2017-03-25T06:07:33.155Z,40
2017-03-25T06:08:32.809Z,40
2017-03-25T06:09:33.112Z,45
2017-03-25T06:10:32.762Z,45
2017-03-25T06:11:33.075Z,45
2017-03-25T06:12:32.745Z,45
2017-03-25T06:13:32.769Z,45
2017-03-25T06:14:33.024Z,45
2017-03-25T06:15:32.662Z,45
2017-03-25T06:16:32.963Z,45
2017-03-25T06:17:32.942Z,50
2017-03-25T06:18:32.927Z,50
2017-03-25T06:19:32.909Z,50
2017-03-25T06:20:32.570Z,50
2017-03-25T06:21:32.861Z,50
2017-03-25T06:22:32.850Z,50
2017-03-25T06:23:32.825Z,50
2017-03-25T06:24:32.812Z,50
2017-03-25T06:25:32.786Z,50
2017-03-25T06:26:32.769Z,50
2017-03-25T06:27:32.750Z,50
2017-03-25T06:28:32.730Z,50
2017-03-25T06:29:32.717Z,50
2017-03-25T06:30:32.376Z,50
2017-03-25T06:31:32.355Z,50
2017-03-25T06:32:32.647Z,50
2017-03-25T06:33:32.636Z,55
2017-03-25T06:34:32.610Z,55
2017-03-25T06:35:32.598Z,55
2017-03-25T06:36:32.585Z,55
2017-03-25T06:37:32.610Z,55
2017-03-25T06:38:32.544Z,55
2017-03-25T06:39:32.508Z,60
2017-03-25T06:40:31.875Z,60
2017-03-25T06:41:32.471Z,60
2017-03-25T06:42:32.142Z,60
2017-03-25T06:43:32.440Z,60
2017-03-25T06:44:32.106Z,65
2017-03-25T06:45:32.392Z,65
2017-03-25T06:46:32.382Z,65
2017-03-25T06:47:32.058Z,70
2017-03-25T06:48:31.732Z,70
2017-03-25T06:49:32.333Z,75
2017-03-25T06:50:32.322Z,75
2017-03-25T06:51:32.294Z,80
2017-03-25T06:52:32.278Z,80
2017-03-25T06:53:32.263Z,80
2017-03-25T06:54:32.238Z,85
2017-03-25T06:55:32.252Z,85
2017-03-25T06:56:32.183Z,80
2017-03-25T06:57:31.868Z,80
2017-03-25T06:58:31.856Z,85
2017-03-25T06:59:31.835Z,85
2017-03-25T07:00:32.114Z,85
2017-03-25T07:01:32.092Z,85
2017-03-25T07:02:32.074Z,90
2017-03-25T07:03:32.062Z,90
2017-03-25T07:04:31.750Z,90
2017-03-25T07:05:32.015Z,90
2017-03-25T07:06:31.995Z,95
2017-03-25T07:07:31.986Z,95
2017-03-25T07:08:31.659Z,100
2017-03-25T07:09:31.938Z,100
2017-03-25T07:10:31.612Z,105
2017-03-25T07:11:31.916Z,105
2017-03-25T07:12:31.583Z,110
2017-03-25T07:13:31.877Z,110
2017-03-25T07:14:31.546Z,110
2017-03-25T07:15:31.519Z,120
2017-03-25T07:16:31.814Z,115
2017-03-25T07:17:31.792Z,120
2017-03-25T07:18:31.786Z,120
2017-03-25T07:19:31.765Z,125
2017-03-25T07:20:31.431Z,125
2017-03-25T07:21:31.725Z,125
2017-03-25T07:22:31.403Z,130
2017-03-25T07:23:31.075Z,130
2017-03-25T07:24:31.361Z,130
2017-03-25T07:25:31.654Z,130
2017-03-25T07:26:31.332Z,130
2017-03-25T07:27:31.613Z,130
2017-03-25T07:28:31.618Z,130
2017-03-25T07:29:31.579Z,130
2017-03-25T07:30:31.260Z,135
2017-03-25T07:31:31.545Z,130
2017-03-25T07:32:31.525Z,130
2017-03-25T07:33:31.245Z,130
2017-03-25T07:34:31.178Z,130
2017-03-25T07:35:31.474Z,130
2017-03-25T07:36:31.139Z,135
2017-03-25T07:37:31.454Z,135
2017-03-25T07:38:31.421Z,135
2017-03-25T07:39:31.409Z,135
2017-03-25T07:40:31.385Z,135
2017-03-25T07:41:31.377Z,135
2017-03-25T07:42:31.350Z,135
2017-03-25T07:43:31.341Z,135
2017-03-25T07:44:31.334Z,135
2017-03-25T07:45:31.311Z,140
2017-03-25T07:46:31.309Z,140
2017-03-25T07:47:31.272Z,140
2017-03-25T07:48:31.244Z,140
2017-03-25T07:49:31.239Z,135
2017-03-25T07:50:31.214Z,140
2017-03-25T07:51:31.202Z,140
2017-03-25T07:52:31.189Z,140
2017-03-25T07:53:31.183Z,140
2017-03-25T07:54:31.151Z,140
2017-03-25T07:55:30.821Z,140
2017-03-25T07:56:31.111Z,140
2017-03-25T07:57:31.093Z,140
2017-03-25T07:58:30.773Z,140
2017-03-25T07:59:31.068Z,145
2017-03-25T08:00:31.064Z,140
2017-03-25T08:01:30.716Z,145
2017-03-25T08:02:31.012Z,145
2017-03-25T08:03:31.009Z,145
2017-03-25T08:04:31.044Z,145
2017-03-25T08:05:30.960Z,150
2017-03-25T08:06:30.627Z,150
2017-03-25T08:07:30.626Z,150
2017-03-25T08:08:30.934Z,150
2017-03-25T08:09:30.916Z,155
2017-03-25T08:10:30.875Z,160
2017-03-25T08:11:30.860Z,160
2017-03-25T08:12:30.839Z,160
2017-03-25T08:13:30.535Z,160
2017-03-25T08:14:30.820Z,165
2017-03-25T08:15:30.497Z,170
2017-03-25T08:16:30.466Z,175
2017-03-25T08:17:30.772Z,190
2017-03-25T08:18:30.764Z,370
2017-03-25T08:19:30.746Z,715
2017-03-25T08:20:30.400Z,775
2017-03-25T08:21:30.698Z,840
2017-03-25T08:22:30.691Z,860
2017-03-25T08:23:30.676Z,775
2017-03-25T08:24:30.062Z,635
2017-03-25T08:25:30.659Z,680
2017-03-25T08:26:30.655Z,780
2017-03-25T08:27:30.673Z,835
2017-03-25T08:28:30.622Z,835
2017-03-25T08:29:30.612Z,945
2017-03-25T08:30:30.311Z,910
2017-03-25T08:31:29.972Z,890
2017-03-25T08:32:30.255Z,800
2017-03-25T08:33:29.963Z,755
2017-03-25T08:34:29.630Z,635
2017-03-25T08:35:30.541Z,345
2017-03-25T08:36:30.513Z,500
2017-03-25T08:37:30.504Z,610
2017-03-25T08:38:30.182Z,505
2017-03-25T08:39:30.491Z,710
2017-03-25T08:40:30.467Z,675
2017-03-25T08:41:30.467Z,640
2017-03-25T08:42:30.162Z,565
2017-03-25T08:43:30.463Z,500
2017-03-25T08:44:31.410Z,530
2017-03-25T08:45:30.436Z,545
2017-03-25T08:46:30.433Z,565
2017-03-25T08:47:30.106Z,650
2017-03-25T08:48:30.165Z,875
2017-03-25T08:49:30.404Z,915
2017-03-25T08:50:30.393Z,960
2017-03-25T08:51:30.070Z,990
2017-03-25T08:52:29.779Z,810
2017-03-25T08:53:30.382Z,645
2017-03-25T08:54:30.364Z,525
2017-03-25T08:55:30.368Z,600
2017-03-25T08:56:30.348Z,645
2017-03-25T08:57:30.344Z,695
2017-03-25T08:58:30.341Z,660
2017-03-25T08:59:30.415Z,635
2017-03-25T09:00:31.298Z,770
2017-03-25T09:01:29.693Z,760
2017-03-25T09:02:30.309Z,615
2017-03-25T09:03:30.308Z,585
2017-03-25T09:04:31.276Z,695
2017-03-25T09:05:30.294Z,580
2017-03-25T09:06:30.336Z,615
2017-03-25T09:07:29.964Z,810
2017-03-25T09:08:29.960Z,520
2017-03-25T09:09:29.959Z,375
2017-03-25T09:10:29.949Z,410
2017-03-25T09:11:30.250Z,700
2017-03-25T09:12:30.236Z,855
2017-03-25T09:13:30.237Z,875
2017-03-25T09:14:29.919Z,950
2017-03-25T09:15:30.213Z,845
2017-03-25T09:16:29.893Z,870
2017-03-25T09:17:30.200Z,970
2017-03-25T09:18:30.194Z,840
2017-03-25T09:19:30.195Z,645
2017-03-25T09:20:29.548Z,575
2017-03-25T09:21:29.874Z,505
2017-03-25T09:22:30.198Z,505
2017-03-25T09:23:30.158Z,665
2017-03-25T09:24:30.162Z,875
2017-03-25T09:25:29.834Z,1140
2017-03-25T09:26:30.133Z,895
2017-03-25T09:27:30.131Z,510
2017-03-25T09:28:29.816Z,420
2017-03-25T09:29:30.325Z,435
2017-03-25T09:31:30.148Z,550
2017-03-25T09:32:30.087Z,745
2017-03-25T09:33:29.786Z,710
2017-03-25T09:34:30.084Z,590
2017-03-25T09:35:29.761Z,710
2017-03-25T09:36:30.718Z,490
2017-03-25T09:37:30.053Z,450
2017-03-25T09:38:30.056Z,690
2017-03-25T09:39:30.053Z,565
2017-03-25T09:40:29.724Z,550
2017-03-25T09:41:30.034Z,495
2017-03-25T09:42:30.027Z,435
2017-03-25T09:43:30.017Z,405
2017-03-25T09:44:30.016Z,415
2017-03-25T09:45:29.690Z,435
2017-03-25T09:46:29.993Z,400
2017-03-25T09:47:29.677Z,340
2017-03-25T09:48:30.006Z,460
2017-03-25T09:49:29.978Z,855
2017-03-25T09:50:29.964Z,970
2017-03-25T09:51:29.409Z,705
2017-03-25T09:52:29.958Z,580
2017-03-25T09:53:29.956Z,650
2017-03-25T09:54:29.946Z,765
2017-03-25T09:55:29.954Z,740
2017-03-25T09:56:29.945Z,895
2017-03-25T09:57:29.929Z,1070
2017-03-25T09:58:29.932Z,975
2017-03-25T10:00:01.684Z,645
2017-03-25T10:00:29.917Z,460
2017-03-25T10:01:29.912Z,675
2017-03-25T10:02:29.898Z,850
2017-03-25T10:03:29.587Z,965
2017-03-25T10:04:29.890Z,1240
2017-03-25T10:05:29.887Z,930
2017-03-25T10:06:29.887Z,550
2017-03-25T10:07:29.930Z,625
2017-03-25T10:08:29.974Z,1130
2017-03-25T10:09:29.871Z,1175
2017-03-25T10:10:29.530Z,1130
2017-03-25T10:11:29.554Z,1280
2017-03-25T10:12:29.852Z,1185
2017-03-25T10:13:29.230Z,1055
2017-03-25T10:14:29.538Z,820
2017-03-25T10:15:29.524Z,485
2017-03-25T10:16:29.506Z,420
2017-03-25T10:17:29.513Z,455
2017-03-25T10:18:29.517Z,740
2017-03-25T10:19:29.521Z,1210
2017-03-25T10:20:29.224Z,1395
2017-03-25T10:21:29.187Z,1320
2017-03-25T10:22:29.532Z,1055
2017-03-25T10:23:29.800Z,650
2017-03-25T10:24:29.476Z,1005
2017-03-25T10:25:29.824Z,965
2017-03-25T10:26:29.469Z,955
2017-03-25T10:27:29.784Z,940
2017-03-25T10:28:29.794Z,945
2017-03-25T10:29:29.777Z,985
2017-03-25T10:30:29.812Z,1130
2017-03-25T10:31:29.768Z,1135
2017-03-25T10:32:29.749Z,1180
2017-03-25T10:33:29.754Z,1335
2017-03-25T10:34:29.745Z,1415
2017-03-25T10:35:29.734Z,1275
2017-03-25T10:36:29.509Z,1300
2017-03-25T10:37:29.729Z,1250
2017-03-25T10:38:29.468Z,595
2017-03-25T10:39:29.426Z,675
2017-03-25T10:40:29.423Z,1160
2017-03-25T10:41:29.446Z,1465
2017-03-25T10:42:29.404Z,1410
2017-03-25T10:43:29.406Z,1220
2017-03-25T10:44:29.407Z,1195
2017-03-25T10:45:29.717Z,980
2017-03-25T10:46:29.703Z,920
2017-03-25T10:47:29.699Z,975
2017-03-25T10:48:29.392Z,1120
2017-03-25T10:49:29.681Z,1090
2017-03-25T10:50:29.694Z,1190
2017-03-25T10:51:29.357Z,1465
2017-03-25T10:52:29.667Z,1570
2017-03-25T10:53:29.667Z,1610
2017-03-25T10:54:29.370Z,1445
2017-03-25T10:55:29.405Z,1340
2017-03-25T10:56:29.657Z,1255
2017-03-25T10:57:29.391Z,1175
2017-03-25T10:58:29.660Z,1245
2017-03-25T10:59:29.338Z,1295
2017-03-25T11:00:29.342Z,1355
2017-03-25T11:01:29.332Z,1325
2017-03-25T11:02:29.331Z,1240
2017-03-25T11:03:29.339Z,1350
2017-03-25T11:04:29.640Z,1325
2017-03-25T11:05:29.325Z,1255
2017-03-25T11:06:29.682Z,1225
2017-03-25T11:07:29.315Z,1420
2017-03-25T11:08:29.643Z,1380
2017-03-25T11:09:29.656Z,1245
2017-03-25T11:10:29.629Z,1135
2017-03-25T11:11:29.617Z,995
2017-03-25T11:12:29.617Z,890
2017-03-25T11:13:29.632Z,870
2017-03-25T11:14:29.638Z,710
2017-03-25T11:15:29.617Z,605
2017-03-25T11:16:29.291Z,635
2017-03-25T11:17:29.609Z,610
2017-03-25T11:18:29.300Z,685
2017-03-25T11:19:29.343Z,705
2017-03-25T11:20:29.600Z,685
2017-03-25T11:21:29.597Z,760
2017-03-25T11:22:29.601Z,845
2017-03-25T11:23:29.334Z,1015
2017-03-25T11:24:29.602Z,1285
2017-03-25T11:25:29.582Z,1520
2017-03-25T11:26:29.585Z,1500
2017-03-25T11:27:29.584Z,1510
2017-03-25T11:28:29.587Z,1140
2017-03-25T11:29:29.771Z,985
2017-03-25T11:30:29.576Z,1075
2017-03-25T11:31:29.578Z,1035
2017-03-25T11:32:29.564Z,900
2017-03-25T11:33:29.568Z,865
2017-03-25T11:34:29.246Z,1055
2017-03-25T11:35:29.240Z,1265
2017-03-25T11:36:29.574Z,1270
2017-03-25T11:37:29.238Z,1455
2017-03-25T11:38:29.548Z,1420
2017-03-25T11:39:29.546Z,1275
2017-03-25T11:40:29.242Z,1405
2017-03-25T11:41:29.529Z,1330
2017-03-25T11:42:29.534Z,1300
2017-03-25T11:43:29.534Z,1365
2017-03-25T11:44:29.284Z,1445
2017-03-25T11:45:29.547Z,1490
2017-03-25T11:46:29.535Z,1380
2017-03-25T11:47:29.214Z,1255
2017-03-25T11:48:29.530Z,1435
2017-03-25T11:49:29.223Z,1775
2017-03-25T11:50:29.523Z,1845
2017-03-25T11:51:29.222Z,1855
2017-03-25T11:52:29.532Z,1490
2017-03-25T11:53:29.581Z,1595
2017-03-25T11:54:29.531Z,1920
2017-03-25T11:55:29.574Z,1950
2017-03-25T11:56:29.209Z,1920
2017-03-25T11:57:29.525Z,1890
2017-03-25T11:58:29.227Z,1900
2017-03-25T11:59:29.221Z,1895
2017-03-25T12:00:29.570Z,1910
2017-03-25T12:01:29.531Z,1905
2017-03-25T12:02:29.547Z,1875
2017-03-25T12:03:29.144Z,1885
2017-03-25T12:04:29.539Z,1925
2017-03-25T12:05:29.211Z,1975
2017-03-25T12:06:29.225Z,1995
2017-03-25T12:07:29.276Z,1960
2017-03-25T12:08:29.483Z,1950
2017-03-25T12:09:29.533Z,1880
2017-03-25T12:10:29.237Z,1915
2017-03-25T12:11:29.550Z,1915
2017-03-25T12:12:29.545Z,1910
2017-03-25T12:13:29.239Z,1875
2017-03-25T12:14:29.556Z,1855
2017-03-25T12:15:29.558Z,1795
2017-03-25T12:16:29.550Z,1720
2017-03-25T12:17:29.244Z,1750
2017-03-25T12:18:29.606Z,1790
2017-03-25T12:19:29.568Z,1870
2017-03-25T12:20:29.252Z,1855
2017-03-25T12:21:29.246Z,1855
2017-03-25T12:22:29.583Z,1860
2017-03-25T12:23:29.256Z,1880
2017-03-25T12:24:29.633Z,1930
2017-03-25T12:25:29.271Z,1930
2017-03-25T12:26:29.592Z,1895
2017-03-25T12:27:29.619Z,1865
2017-03-25T12:28:29.613Z,1850
2017-03-25T12:29:29.608Z,1810
2017-03-25T12:30:29.602Z,1770
2017-03-25T12:31:29.328Z,1760
2017-03-25T12:32:29.643Z,1815
2017-03-25T12:33:29.628Z,1820
2017-03-25T12:34:29.622Z,1790
2017-03-25T12:35:29.603Z,1800
2017-03-25T12:36:29.281Z,1800
2017-03-25T12:37:29.592Z,1825
2017-03-25T12:38:29.601Z,1800
2017-03-25T12:39:29.806Z,1795
2017-03-25T12:40:29.278Z,1760
2017-03-25T12:41:29.594Z,1770
2017-03-25T12:42:29.333Z,1785
2017-03-25T12:43:29.311Z,1780
2017-03-25T12:44:29.614Z,1795
2017-03-25T12:45:29.625Z,1795
2017-03-25T12:46:29.613Z,1785
2017-03-25T12:47:29.313Z,1770
2017-03-25T12:48:29.359Z,1700
2017-03-25T12:49:29.006Z,1725
2017-03-25T12:50:29.640Z,1755
2017-03-25T12:51:29.655Z,1760
2017-03-25T12:52:29.343Z,1780
2017-03-25T12:53:29.635Z,1760
2017-03-25T12:54:29.683Z,1770
2017-03-25T12:55:29.626Z,1785
2017-03-25T12:56:29.646Z,1790
2017-03-25T12:57:30.593Z,1800
2017-03-25T12:58:29.653Z,1810
2017-03-25T12:59:29.634Z,1785
2017-03-25T13:00:29.663Z,1750
2017-03-25T13:01:29.329Z,1715
2017-03-25T13:02:29.007Z,1700
2017-03-25T13:03:29.331Z,1675
2017-03-25T13:04:29.652Z,1595
2017-03-25T13:05:29.666Z,1640
2017-03-25T13:06:29.035Z,1660
2017-03-25T13:07:29.661Z,1755
2017-03-25T13:08:29.664Z,1885
2017-03-25T13:09:29.646Z,1945
2017-03-25T13:10:29.323Z,1985
2017-03-25T13:11:29.651Z,1940
2017-03-25T13:12:29.649Z,1805
2017-03-25T13:13:29.675Z,1675
2017-03-25T13:14:29.667Z,1630
2017-03-25T13:15:29.374Z,1635
2017-03-25T13:16:29.660Z,1665
2017-03-25T13:17:29.342Z,1690
2017-03-25T13:18:29.658Z,1720
2017-03-25T13:19:29.358Z,1750
2017-03-25T13:20:29.351Z,1720
2017-03-25T13:21:29.660Z,1680
2017-03-25T13:22:29.665Z,1690
2017-03-25T13:23:29.046Z,1700
2017-03-25T13:24:29.359Z,1700
2017-03-25T13:25:29.673Z,1690
2017-03-25T13:26:29.673Z,1690
2017-03-25T13:27:29.353Z,1695
2017-03-25T13:28:29.356Z,1730
2017-03-25T13:29:30.134Z,1745
2017-03-25T13:30:29.681Z,1740
2017-03-25T13:31:29.353Z,1720
2017-03-25T13:32:29.677Z,1720
2017-03-25T13:33:29.369Z,1720
2017-03-25T13:34:29.680Z,1715
2017-03-25T13:35:29.674Z,1690
2017-03-25T13:36:29.370Z,1665
2017-03-25T13:37:29.694Z,1585
2017-03-25T13:38:30.664Z,1480
2017-03-25T13:39:29.387Z,1435
2017-03-25T13:40:29.356Z,1450
2017-03-25T13:41:28.737Z,1455
2017-03-25T13:42:29.378Z,1450
2017-03-25T13:43:29.691Z,1435
2017-03-25T13:44:29.708Z,1410
2017-03-25T13:45:29.690Z,1390
2017-03-25T13:46:29.711Z,1390
2017-03-25T13:47:29.366Z,1410
2017-03-25T13:48:29.421Z,1410
2017-03-25T13:49:29.703Z,1380
2017-03-25T13:50:29.712Z,1380
2017-03-25T13:51:29.672Z,1375
2017-03-25T13:52:29.679Z,1400
2017-03-25T13:53:29.414Z,1410
2017-03-25T13:54:29.701Z,1440
2017-03-25T13:55:29.743Z,1450
2017-03-25T13:56:29.782Z,1440
2017-03-25T13:57:29.747Z,1445
2017-03-25T13:58:29.389Z,1445
2017-03-25T13:59:29.701Z,1435
2017-03-25T14:00:29.688Z,1435
2017-03-25T14:01:29.364Z,1410
2017-03-25T14:02:29.702Z,1350
2017-03-25T14:03:29.688Z,1320
2017-03-25T14:04:29.708Z,1335
2017-03-25T14:05:29.715Z,1355